Time;durP1;ratioP1;P1;durP2;ratioP2;P2;SDS_P1;SDS_P2;PMS_P1;PMS_P2;Temp;Humidity;BMP_temperature;BMP_pressure;BME280_temperature;BME280_humidity;BME280_pressure;Samples;Min_cycle;Max_cycle;Signal;HPM_P1;HPM_P2
2022/03/22 00:02:30;;;;;;;;;;;15.40;74.10;;;;;;5271754;28;19978;-28
2022/03/22 00:05:01;;;;;;;;;;;15.40;74.20;;;;;;5271726;28;20378;-30
2022/03/22 00:07:35;;;;;;;;;;;15.40;74.70;;;;;;5271428;28;19936;-33
2022/03/22 00:10:06;;;;;;;;;;;15.40;74.70;;;;;;5270837;28;20024;-33
2022/03/22 00:12:37;;;;;;;;;;;15.40;78.00;;;;;;5271265;28;19924;-31
2022/03/22 00:15:09;;;;;;;;;;;15.40;76.20;;;;;;5271263;28;19924;-31
2022/03/22 00:17:41;;;;;;;;;;;15.40;75.50;;;;;;5271608;28;20022;-33
2022/03/22 00:20:12;;;;;;;;;;;15.40;74.40;;;;;;5270329;28;20384;-29
2022/03/22 00:22:43;;;;;;;;;;;15.40;70.40;;;;;;5270807;28;20285;-29
2022/03/22 00:25:16;;;;;;;;;;;15.40;70.00;;;;;;5271393;28;19947;-31
2022/03/22 00:27:53;;;;;;;;;;;15.40;84.60;;;;;;5271644;28;20446;-30
2022/03/22 00:30:29;;;;;;;;;;;15.50;85.60;;;;;;5269922;28;19924;-37
2022/03/22 00:33:01;;;;;;;;;;;15.50;85.60;;;;;;5270391;28;19935;-30
2022/03/22 00:35:35;;;;;;;;;;;15.60;77.60;;;;;;5271084;28;19924;-30
2022/03/22 00:38:20;;;;;;;;;;;15.60;69.80;;;;;;5270226;28;19931;-30
2022/03/22 00:42:11;;;;;;;77.53;56.77;;;15.60;68.60;;;;;;5234158;27;24412;-28
2022/03/22 00:44:48;;;;;;;86.63;58.60;;;15.60;68.10;;;;;;5222928;28;20534;-29
2022/03/22 00:47:18;;;;;;;79.43;54.67;;;15.60;67.80;;;;;;5224693;28;20045;-35
2022/03/22 00:49:50;;;;;;;78.37;55.07;;;15.60;67.50;;;;;;5224996;28;20095;-28
2022/03/22 00:52:21;;;;;;;83.67;60.70;;;15.60;73.10;;;;;;5225229;28;20107;-28
2022/03/22 00:54:52;;;;;;;86.90;62.63;;;15.60;77.40;;;;;;5219310;28;20124;-28
2022/03/22 00:57:23;;;;;;;83.93;61.70;;;15.60;78.50;;;;;;5190410;28;20421;-29
2022/03/22 01:00:06;;;;;;;85.77;63.20;;;15.60;79.40;;;;;;5224911;28;20068;-29
2022/03/22 01:02:49;;;;;;;81.07;58.70;;;15.60;79.60;;;;;;5223714;28;20481;-30
2022/03/22 01:05:21;;;;;;;80.93;59.77;;;15.60;79.50;;;;;;5224613;28;20045;-27
2022/03/22 01:08:00;;;;;;;88.47;62.93;;;15.70;80.10;;;;;;5224397;28;20052;-27
2022/03/22 01:10:31;;;;;;;82.20;60.50;;;15.60;80.10;;;;;;5211425;28;20050;-32
2022/03/22 01:13:03;;;;;;;84.20;61.40;;;15.60;80.20;;;;;;5204599;28;20127;-28
2022/03/22 01:15:35;;;;;;;84.67;61.10;;;15.60;80.20;;;;;;5204090;28;20056;-28
2022/03/22 01:18:07;;;;;;;89.03;63.53;;;15.60;80.20;;;;;;5204256;28;20049;-31
2022/03/22 01:20:40;;;;;;;89.50;62.92;;;15.60;80.30;;;;;;5201225;28;20050;-26
2022/03/22 01:23:11;;;;;;;84.78;60.15;;;15.60;80.30;;;;;;5189293;28;20053;-30
2022/03/22 01:25:43;;;;;;;84.50;60.00;;;15.60;80.40;;;;;;5200098;28;20081;-28
2022/03/22 01:28:14;;;;;;;84.43;61.00;;;15.60;80.40;;;;;;5200504;28;20045;-27
2022/03/22 01:30:45;;;;;;;81.50;57.70;;;15.60;80.20;;;;;;5201612;28;20053;-29
2022/03/22 01:33:16;;;;;;;80.43;59.20;;;15.60;80.50;;;;;;5201333;28;20600;-31
2022/03/22 01:35:47;;;;;;;81.77;54.23;;;15.60;80.70;;;;;;5201088;28;20076;-33
2022/03/22 01:38:18;;;;;;;86.50;57.07;;;15.60;80.50;;;;;;5200148;28;20080;-29
2022/03/22 01:40:49;;;;;;;86.80;58.90;;;15.50;80.80;;;;;;5201357;28;20045;-27
2022/03/22 01:43:20;;;;;;;81.60;56.03;;;15.50;80.80;;;;;;5201434;28;20053;-27
2022/03/22 01:45:51;;;;;;;80.27;54.40;;;15.50;81.00;;;;;;5201127;28;20095;-26
2022/03/22 01:48:22;;;;;;;75.90;53.33;;;15.50;80.80;;;;;;5201541;28;20050;-27
2022/03/22 01:50:54;;;;;;;76.00;51.80;;;15.50;81.10;;;;;;5201165;28;20053;-30
2022/03/22 01:53:25;;;;;;;79.47;54.67;;;15.50;81.30;;;;;;5186479;28;20498;-26
2022/03/22 01:55:57;;;;;;;77.47;54.47;;;15.50;81.30;;;;;;5185809;28;20049;-25
2022/03/22 01:58:27;;;;;;;74.33;53.87;;;15.50;81.10;;;;;;5187146;28;20046;-27
2022/03/22 02:06:53;;;;;;;72.28;49.80;;;15.50;81.10;;;;;;5166682;28;20081;-27
2022/03/22 02:09:23;;;;;;;72.63;49.90;;;15.40;66.20;;;;;;5166881;28;20050;-25
2022/03/22 02:11:55;;;;;;;70.23;49.03;;;15.40;64.20;;;;;;5150684;28;20065;-26
2022/03/22 02:14:27;;;;;;;76.07;53.20;;;15.30;63.60;;;;;;5166769;28;20054;-31
2022/03/22 02:16:58;;;;;;;78.00;55.03;;;15.30;63.20;;;;;;5166772;28;20054;-28
2022/03/22 02:19:29;;;;;;;74.13;52.20;;;15.30;63.00;;;;;;5166562;28;20515;-27
2022/03/22 02:22:01;;;;;;;71.53;51.63;;;15.30;62.90;;;;;;5166747;28;20117;-27
2022/03/22 02:24:32;;;;;;;72.50;50.93;;;15.30;62.80;;;;;;5166764;28;20399;-25
2022/03/22 02:27:07;;;;;;;74.97;53.83;;;15.30;62.50;;;;;;5166655;28;20057;-28
2022/03/22 02:29:37;;;;;;;79.47;54.73;;;15.30;62.40;;;;;;5166789;28;20113;-23
2022/03/22 02:32:09;;;;;;;83.13;56.13;;;15.30;62.30;;;;;;5166444;28;20127;-27
2022/03/22 02:34:40;;;;;;;78.87;56.93;;;15.30;62.20;;;;;;5166780;28;20081;-25
2022/03/22 02:37:11;;;;;;;75.93;55.27;;;15.30;61.90;;;;;;5166233;28;20061;-29
2022/03/22 02:39:44;;;;;;;75.07;53.13;;;15.30;61.90;;;;;;5165797;28;20046;-28
2022/03/22 02:42:15;;;;;;;74.43;54.08;;;15.30;61.80;;;;;;5176450;28;20050;-26
2022/03/22 02:44:46;;;;;;;76.77;52.00;;;15.30;61.80;;;;;;5188479;28;20045;-27
2022/03/22 02:47:17;;;;;;;78.37;56.30;;;15.30;61.70;;;;;;5188554;28;20054;-33
2022/03/22 02:49:48;;;;;;;82.53;56.57;;;15.40;61.70;;;;;;5189099;28;20049;-27
2022/03/22 02:52:19;;;;;;;72.70;51.63;;;15.40;61.60;;;;;;5188777;28;20407;-28
2022/03/22 02:54:50;;;;;;;78.73;54.17;;;15.40;61.50;;;;;;5188239;28;20045;-25
2022/03/22 02:57:21;;;;;;;77.80;55.10;;;15.40;61.50;;;;;;5188573;28;20072;-26
2022/03/22 02:59:52;;;;;;;81.93;59.53;;;15.40;61.30;;;;;;5188394;28;20046;-25
2022/03/22 03:02:23;;;;;;;80.63;57.30;;;15.40;61.30;;;;;;5187978;28;20050;-25
2022/03/22 03:04:54;;;;;;;75.60;55.77;;;15.40;61.30;;;;;;5187022;28;20050;-24
2022/03/22 03:07:25;;;;;;;71.37;50.63;;;15.40;61.20;;;;;;5188221;28;20084;-25
2022/03/22 03:09:56;;;;;;;80.07;57.70;;;15.40;61.20;;;;;;5188153;28;20169;-25
2022/03/22 03:12:27;;;;;;;76.00;56.77;;;15.40;61.10;;;;;;5187953;28;20042;-23
2022/03/22 03:14:58;;;;;;;75.07;54.73;;;15.40;61.00;;;;;;5188182;28;20057;-27
2022/03/22 03:17:29;;;;;;;71.20;53.60;;;15.40;61.10;;;;;;5187179;28;20057;-26
2022/03/22 03:20:01;;;;;;;70.97;53.77;;;15.40;61.10;;;;;;5188198;28;20042;-35
2022/03/22 03:22:32;;;;;;;70.50;52.83;;;15.40;61.00;;;;;;5188117;28;20463;-30
2022/03/22 03:25:06;;;;;;;68.17;52.37;;;15.40;61.10;;;;;;5188030;28;20065;-25
2022/03/22 03:27:37;;;;;;;67.23;48.17;;;15.50;61.00;;;;;;5187985;28;20062;-26
2022/03/22 03:30:08;;;;;;;68.07;49.40;;;15.50;61.00;;;;;;5187853;28;20494;-25
2022/03/22 03:32:40;;;;;;;69.30;50.93;;;15.60;60.90;;;;;;5187624;28;20049;-30
2022/03/22 03:35:11;;;;;;;71.32;51.90;;;15.60;60.90;;;;;;5187620;28;20042;-26
2022/03/22 03:37:46;;;;;;;71.83;51.87;;;15.60;60.80;;;;;;5187976;28;20521;-26
2022/03/22 03:40:17;;;;;;;70.50;51.97;;;15.70;60.70;;;;;;5187522;28;20053;-26
2022/03/22 03:42:48;;;;;;;71.77;53.30;;;15.70;60.60;;;;;;5187695;28;20042;-28
2022/03/22 03:48:11;;;;;;;70.43;51.07;;;15.70;60.50;;;;;;5187563;28;20069;-26
2022/03/22 03:50:42;;;;;;;76.23;53.63;;;15.70;60.40;;;;;;5186500;28;20044;-26
2022/03/22 03:53:14;;;;;;;75.70;54.40;;;15.70;60.30;;;;;;5187132;28;20050;-28
2022/03/22 03:55:45;;;;;;;88.70;58.13;;;15.70;60.30;;;;;;5187492;28;20042;-27
2022/03/22 03:58:17;;;;;;;94.57;60.80;;;15.70;60.30;;;;;;5187474;28;20400;-27
2022/03/22 04:00:48;;;;;;;98.30;63.40;;;15.70;60.30;;;;;;5186276;28;20038;-24
2022/03/22 04:03:19;;;;;;;141.17;78.63;;;15.70;60.20;;;;;;5187315;28;20045;-24
2022/03/22 04:05:49;;;;;;;222.87;111.87;;;15.70;60.10;;;;;;5186582;28;20046;-25
2022/03/22 04:08:20;;;;;;;225.47;113.03;;;15.70;60.10;;;;;;5186355;28;20045;-26
2022/03/22 04:10:53;;;;;;;167.30;91.93;;;15.70;60.00;;;;;;5187097;28;20423;-33
2022/03/22 04:13:24;;;;;;;152.90;84.90;;;15.70;60.00;;;;;;5187575;28;20053;-30
2022/03/22 04:15:54;;;;;;;142.80;83.37;;;15.70;60.00;;;;;;5185516;28;20506;-33
2022/03/22 04:18:26;;;;;;;168.90;91.97;;;15.70;60.00;;;;;;5185549;28;20061;-25
2022/03/22 04:20:56;;;;;;;161.47;91.07;;;15.70;60.00;;;;;;5186191;28;20041;-24
2022/03/22 04:23:28;;;;;;;134.30;81.03;;;15.70;59.90;;;;;;5185786;28;20070;-28
2022/03/22 04:26:00;;;;;;;197.43;103.00;;;15.70;59.90;;;;;;5186963;28;20052;-24
2022/03/22 04:34:10;;;;;;;144.97;87.40;;;15.80;60.20;;;;;;5185904;28;20518;-26
2022/03/22 04:36:41;;;;;;;108.60;67.97;;;15.80;60.00;;;;;;5127941;28;20125;-25
2022/03/22 04:39:12;;;;;;;90.03;58.90;;;15.70;60.40;;;;;;5144252;28;20078;-25
2022/03/22 04:41:43;;;;;;;77.67;53.53;;;15.80;60.90;;;;;;5144420;28;20109;-28
2022/03/22 04:44:16;;;;;;;91.33;59.47;;;15.70;61.10;;;;;;5144309;28;20528;-26
2022/03/22 04:46:47;;;;;;;93.25;60.10;;;15.70;61.20;;;;;;5143847;28;20451;-24
2022/03/22 04:49:18;;;;;;;80.63;55.63;;;15.70;61.20;;;;;;5144170;28;20070;-32
2022/03/22 04:57:28;;;;;;;78.93;56.97;;;15.70;61.10;;;;;;5186098;28;20050;-28
2022/03/22 05:00:00;;;;;;;73.73;52.30;;;15.70;61.20;;;;;;5186388;28;20069;-28
2022/03/22 05:02:31;;;;;;;72.37;51.77;;;15.70;61.20;;;;;;5186354;28;20046;-24
2022/03/22 05:05:02;;;;;;;67.73;51.87;;;15.70;61.10;;;;;;5186673;28;20046;-30
2022/03/22 05:07:33;;;;;;;68.53;49.73;;;15.80;60.90;;;;;;5185995;28;20534;-25
2022/03/22 05:10:05;;;;;;;71.40;52.80;;;15.90;60.60;;;;;;5185736;28;20419;-32
2022/03/22 05:12:39;;;;;;;65.70;51.13;;;15.60;61.30;;;;;;5186240;28;20038;-27
2022/03/22 05:15:10;;;;;;;72.17;53.47;;;15.10;62.30;;;;;;5186563;28;20065;-23
2022/03/22 05:17:41;;;;;;;75.37;54.47;;;14.70;62.50;;;;;;5186063;28;20050;-30
2022/03/22 05:20:15;;;;;;;69.50;52.50;;;14.40;63.20;;;;;;5186067;28;20046;-25
2022/03/22 05:22:46;;;;;;;71.33;52.23;;;14.10;63.60;;;;;;5185959;28;20050;-26
2022/03/22 05:25:17;;;;;;;70.57;51.10;;;13.90;63.80;;;;;;5186356;28;20073;-30
2022/03/22 05:27:48;;;;;;;67.67;49.93;;;13.80;64.00;;;;;;5188667;28;20066;-28
2022/03/22 05:30:20;;;;;;;60.27;47.70;;;13.70;64.20;;;;;;5190222;28;20049;-26
2022/03/22 05:32:51;;;;;;;58.50;46.80;;;13.60;64.90;;;;;;5189429;28;20053;-30
2022/03/22 05:35:23;;;;;;;51.50;41.83;;;13.50;65.10;;;;;;5190065;28;20077;-25
2022/03/22 05:37:55;;;;;;;57.53;44.23;;;13.40;65.50;;;;;;5189442;28;20069;-24
2022/03/22 05:40:26;;;;;;;56.85;44.67;;;13.30;65.80;;;;;;5188719;28;20049;-26
2022/03/22 05:42:57;;;;;;;60.03;46.33;;;13.30;66.00;;;;;;5189935;28;20053;-29
2022/03/22 05:45:28;;;;;;;60.57;46.70;;;13.20;66.10;;;;;;5189805;28;20065;-30
2022/03/22 05:48:00;;;;;;;58.23;44.90;;;13.20;66.10;;;;;;5190338;28;20070;-26
2022/03/22 05:50:32;;;;;;;53.53;42.30;;;13.10;66.50;;;;;;5189902;28;20407;-26
2022/03/22 05:53:03;;;;;;;62.47;44.87;;;13.10;66.90;;;;;;5189850;28;20049;-26
2022/03/22 05:55:34;;;;;;;61.47;45.47;;;13.10;66.90;;;;;;5187976;28;20108;-24
2022/03/22 05:58:05;;;;;;;67.10;48.77;;;13.00;66.70;;;;;;5189697;28;20468;-30
2022/03/22 06:00:37;;;;;;;69.23;49.43;;;13.00;66.80;;;;;;5188140;28;20049;-30
2022/03/22 06:03:07;;;;;;;61.37;46.07;;;13.00;67.60;;;;;;5188118;28;20046;-30
2022/03/22 06:05:39;;;;;;;60.63;45.67;;;12.90;67.80;;;;;;5188291;28;20076;-32
2022/03/22 06:08:10;;;;;;;;;;;12.90;68.10;;;;;;5188114;28;20053;-29
2022/03/22 06:10:41;;;;;;;59.43;43.67;;;12.90;68.60;;;;;;5189033;28;19948;-26
2022/03/22 06:13:13;;;;;;;55.60;43.13;;;12.90;69.00;;;;;;5188245;28;20121;-29
2022/03/22 06:15:44;;;;;;;54.80;40.73;;;12.80;69.30;;;;;;5189617;28;20038;-29
2022/03/22 06:18:15;;;;;;;52.10;39.70;;;12.80;69.90;;;;;;5189391;28;20053;-29
2022/03/22 06:20:46;;;;;;;47.27;36.37;;;12.80;70.50;;;;;;5188583;28;20391;-30
2022/03/22 06:23:19;;;;;;;44.03;36.13;;;12.70;71.00;;;;;;5189161;28;20046;-31
2022/03/22 06:25:51;;;;;;;41.80;34.80;;;12.80;71.30;;;;;;5188966;28;20057;-26
2022/03/22 06:28:24;;;;;;;43.13;33.87;;;12.90;71.80;;;;;;5189238;28;20045;-24
2022/03/22 06:30:56;;;;;;;45.43;34.13;;;13.00;71.90;;;;;;5188068;28;20070;-25
2022/03/22 06:33:27;;;;;;;41.10;33.93;;;13.00;71.80;;;;;;5185323;28;20502;-25
2022/03/22 06:35:58;;;;;;;41.30;33.40;;;13.10;72.00;;;;;;5186926;28;20038;-24
2022/03/22 06:38:32;;;;;;;41.37;33.80;;;13.20;72.10;;;;;;5186742;28;20076;-28
2022/03/22 06:41:03;;;;;;;40.53;33.27;;;13.20;71.80;;;;;;5186520;28;20120;-26
2022/03/22 06:43:34;;;;;;;41.17;34.00;;;13.20;72.20;;;;;;5186645;28;20045;-28
2022/03/22 06:46:05;;;;;;;40.70;33.97;;;13.30;72.00;;;;;;5184753;28;20132;-32
2022/03/22 06:48:36;;;;;;;42.13;33.90;;;13.20;72.50;;;;;;5186429;28;20430;-26
2022/03/22 06:51:08;;;;;;;44.50;35.93;;;13.10;72.60;;;;;;5186235;28;20050;-26
2022/03/22 06:53:38;;;;;;;40.60;33.13;;;13.10;72.60;;;;;;5186460;28;20398;-29
2022/03/22 06:56:09;;;;;;;47.03;35.47;;;13.10;72.90;;;;;;5186173;28;20479;-31
2022/03/22 06:58:40;;;;;;;42.63;34.70;;;13.00;73.20;;;;;;5186105;28;20057;-31
2022/03/22 07:01:12;;;;;;;42.53;32.90;;;13.10;73.40;;;;;;5186102;28;20076;-26
2022/03/22 07:03:43;;;;;;;44.27;35.03;;;13.00;73.60;;;;;;5186344;28;20507;-27
2022/03/22 07:06:15;;;;;;;44.43;36.40;;;13.00;73.70;;;;;;5186088;28;20411;-27
2022/03/22 07:08:45;;;;;;;44.57;37.47;;;13.00;74.20;;;;;;5184379;28;20050;-26
2022/03/22 07:14:06;;;;;;;45.10;36.67;;;13.00;74.20;;;;;;5185819;28;20046;-23
2022/03/22 07:16:40;;;;;;;46.17;38.23;;;13.00;74.70;;;;;;5184721;28;20100;-25
2022/03/22 07:19:11;;;;;;;48.63;37.80;;;12.90;74.70;;;;;;5168236;28;20073;-28
2022/03/22 07:21:44;;;;;;;46.23;38.40;;;12.90;74.70;;;;;;5186026;28;20108;-24
2022/03/22 07:24:18;;;;;;;47.67;38.92;;;12.90;75.00;;;;;;5186014;28;20046;-28
2022/03/22 07:26:49;;;;;;;48.23;39.53;;;13.00;74.80;;;;;;5186029;28;20046;-28
2022/03/22 07:29:21;;;;;;;45.97;37.40;;;13.00;75.20;;;;;;5185485;28;20053;-26
2022/03/22 07:31:52;;;;;;;44.37;36.43;;;13.00;75.40;;;;;;5184351;28;20498;-24
2022/03/22 07:34:24;;;;;;;46.67;38.13;;;12.90;74.90;;;;;;5185655;28;20081;-26
2022/03/22 07:36:55;;;;;;;43.77;37.10;;;12.90;74.60;;;;;;5185663;28;20064;-29
2022/03/22 07:39:29;;;;;;;42.80;34.77;;;12.90;74.60;;;;;;5184272;28;20054;-25
2022/03/22 07:42:00;;;;;;;42.53;35.43;;;12.90;74.50;;;;;;5185590;28;20060;-28
2022/03/22 07:44:32;;;;;;;41.80;35.00;;;12.90;73.90;;;;;;5187819;28;20089;-26
2022/03/22 07:47:03;;;;;;;40.63;32.70;;;12.90;74.30;;;;;;5187245;28;20053;-30
2022/03/22 07:55:16;;;;;;;36.00;30.20;;;12.90;74.10;;;;;;5187756;28;20120;-28
2022/03/22 07:57:47;;;;;;;37.60;31.40;;;12.90;74.60;;;;;;5187316;28;20160;-30
2022/03/22 08:00:21;;;;;;;36.30;30.93;;;12.90;74.70;;;;;;5185973;28;20046;-27
2022/03/22 08:02:53;;;;;;;34.80;28.90;;;12.90;73.20;;;;;;5185973;28;20038;-26
2022/03/22 08:05:25;;;;;;;34.00;27.30;;;13.00;72.50;;;;;;5187205;28;20136;-28
2022/03/22 08:07:56;;;;;;;32.47;27.20;;;13.10;71.90;;;;;;5186010;28;20377;-25
2022/03/22 08:10:27;;;;;;;31.90;26.50;;;13.40;72.20;;;;;;5186122;28;20483;-26
2022/03/22 08:12:59;;;;;;;33.47;26.17;;;13.60;72.80;;;;;;5187120;28;20046;-28
2022/03/22 08:15:30;;;;;;;34.30;26.43;;;13.90;73.30;;;;;;5185986;28;20124;-26
2022/03/22 08:18:01;;;;;;;31.00;26.47;;;14.20;73.20;;;;;;5186875;28;20046;-30
2022/03/22 08:20:32;;;;;;;30.83;25.53;;;14.40;72.30;;;;;;5187446;28;20042;-28
2022/03/22 08:23:04;;;;;;;30.67;24.27;;;14.60;71.80;;;;;;5187145;28;20456;-28
2022/03/22 08:25:39;;;;;;;30.17;25.00;;;14.80;71.60;;;;;;5186891;28;20056;-26
2022/03/22 08:28:11;;;;;;;29.93;25.70;;;14.90;71.30;;;;;;5187242;28;20046;-27
2022/03/22 08:30:42;;;;;;;30.80;25.47;;;15.00;71.00;;;;;;5187242;28;20057;-31
2022/03/22 08:33:13;;;;;;;30.93;25.47;;;15.10;71.80;;;;;;5187269;28;20050;-26
2022/03/22 08:35:47;;;;;;;34.70;25.50;;;15.20;71.10;;;;;;5187004;28;20419;-33
2022/03/22 08:38:20;;;;;;;28.43;23.23;;;15.30;70.90;;;;;;5186867;28;20053;-30
2022/03/22 08:40:54;;;;;;;31.52;23.30;;;15.30;70.40;;;;;;5186533;28;20193;-26
2022/03/22 08:43:25;;;;;;;28.00;22.57;;;15.40;70.10;;;;;;5186715;28;20049;-28
2022/03/22 08:45:58;;;;;;;28.00;22.57;;;15.50;70.40;;;;;;5186799;28;20141;-29
2022/03/22 08:48:31;;;;;;;25.97;21.30;;;15.50;69.70;;;;;;5186811;28;20061;-28
2022/03/22 08:51:05;;;;;;;24.53;21.53;;;15.60;69.80;;;;;;5186740;28;20054;-26
2022/03/22 08:53:36;;;;;;;27.95;22.38;;;15.60;70.60;;;;;;5185381;28;20510;-28
2022/03/22 08:56:09;;;;;;;;;;;15.70;71.30;;;;;;5187122;28;20053;-27
2022/03/22 08:58:41;;;;;;;;;;;15.70;71.30;;;;;;5187415;28;19921;-26
2022/03/22 09:01:12;;;;;;;;;;;15.70;70.40;;;;;;5187036;28;19921;-30
2022/03/22 09:03:43;;;;;;;;;;;15.80;70.40;;;;;;5190862;28;19921;-25
2022/03/22 09:06:16;;;;;;;;;;;15.80;71.30;;;;;;5191318;28;19925;-27
2022/03/22 09:08:47;;;;;;;;;;;15.80;70.50;;;;;;5191161;28;19922;-25
2022/03/22 09:11:18;;;;;;;;;;;15.80;69.70;;;;;;5190929;28;19921;-28
2022/03/22 09:13:50;;;;;;;;;;;15.80;68.30;;;;;;5189957;28;19926;-29
2022/03/22 09:16:21;;;;;;;;;;;15.80;67.70;;;;;;5191592;28;20063;-27
2022/03/22 09:18:53;;;;;;;;;;;15.90;67.90;;;;;;5190709;28;19949;-26
2022/03/22 09:21:24;;;;;;;;;;;15.90;67.70;;;;;;5190788;28;19963;-26
2022/03/22 09:23:58;;;;;;;;;;;15.90;67.20;;;;;;5190842;28;20427;-26
2022/03/22 09:26:29;;;;;;;;;;;16.00;68.40;;;;;;5190896;28;20059;-26
2022/03/22 09:29:01;;;;;;;;;;;15.90;67.10;;;;;;5190795;28;19922;-30
2022/03/22 09:31:36;;;;;;;;;;;15.90;66.70;;;;;;5189982;28;19921;-25
2022/03/22 09:34:10;;;;;;;;;;;16.00;66.80;;;;;;5190941;28;20306;-24
2022/03/22 09:37:17;;;;;;;;;;;16.00;66.70;;;;;;5208812;28;19928;-26
2022/03/22 09:39:48;;;;;;;;;;;16.00;66.70;;;;;;5208858;28;19921;-27
2022/03/22 09:42:29;;;;;;;;;;;16.00;66.70;;;;;;5208560;28;19994;-28
2022/03/22 09:45:14;;;;;;;;;;;16.00;66.00;;;;;;5224939;28;20012;-26
2022/03/22 09:47:50;;;;;;;;;;;16.10;66.90;;;;;;5209097;28;20337;-26
2022/03/22 09:51:44;;;;;;;;;;;16.10;66.80;;;;;;5224960;28;19940;-23
2022/03/22 09:53:19;;;;;;;;;;;16.10;67.80;;;;;;5221819;28;19925;-31
2022/03/22 09:55:52;;;;;;;;;;;16.10;65.60;;;;;;5208314;28;20365;-25
2022/03/22 09:58:22;;;;;;;;;;;16.10;66.00;;;;;;5225142;28;19921;-24
2022/03/22 10:00:57;;;;;;;;;;;16.10;67.40;;;;;;5208473;28;19924;-26
2022/03/22 10:03:37;;;;;;;;;;;16.10;68.00;;;;;;5208400;28;19968;-27
2022/03/22 10:06:09;;;;;;;;;;;16.10;68.40;;;;;;5208454;28;20271;-26
2022/03/22 10:08:48;;;;;;;;;;;16.10;71.00;;;;;;5192445;28;20003;-30
2022/03/22 10:11:20;;;;;;;;;;;16.20;73.00;;;;;;5221908;28;20393;-25
2022/03/22 10:13:51;;;;;;;;;;;16.30;80.10;;;;;;5189103;28;19929;-28
2022/03/22 10:16:22;;;;;;;;;;;16.30;77.90;;;;;;5189962;28;19921;-25
2022/03/22 10:18:53;;;;;;;;;;;16.30;71.30;;;;;;5189987;28;20275;-24
2022/03/22 10:21:25;;;;;;;;;;;16.30;75.30;;;;;;5190020;28;19925;-25
2022/03/22 10:23:55;;;;;;;;;;;16.30;79.00;;;;;;5189908;28;19976;-32
2022/03/22 10:26:35;;;;;;;;;;;16.30;74.30;;;;;;5189694;28;19928;-26
2022/03/22 10:29:07;;;;;;;;;;;16.30;73.50;;;;;;5189507;28;19921;-26
2022/03/22 10:31:39;;;;;;;;;;;16.40;75.50;;;;;;5189694;28;19943;-25
2022/03/22 10:34:11;;;;;;;;;;;16.40;77.70;;;;;;5189947;28;20448;-26
2022/03/22 10:36:42;;;;;;;;;;;16.40;70.40;;;;;;5189703;28;20290;-26
2022/03/22 10:39:13;;;;;;;;;;;16.40;75.70;;;;;;5189322;28;19925;-28
2022/03/22 10:41:44;;;;;;;;;;;16.40;70.20;;;;;;5189307;28;19921;-27
2022/03/22 10:44:16;;;;;;;;;;;16.40;74.80;;;;;;5189733;28;20020;-24
2022/03/22 10:46:47;;;;;;;;;;;16.40;74.70;;;;;;5188363;28;20051;-30
2022/03/22 10:49:18;;;;;;;;;;;16.50;79.70;;;;;;5189361;28;20038;-25
2022/03/22 10:51:53;;;;;;;;;;;16.50;76.10;;;;;;5189152;28;19925;-26
2022/03/22 10:54:24;;;;;;;;;;;16.60;76.70;;;;;;5189933;28;19929;-30
2022/03/22 10:56:55;;;;;;;;;;;16.60;75.30;;;;;;5188964;28;19921;-32
2022/03/22 10:59:26;;;;;;;;;;;16.70;76.20;;;;;;5187643;28;19929;-28
2022/03/22 11:01:57;;;;;;;;;;;16.80;75.20;;;;;;5189043;28;19921;-24
2022/03/22 11:04:28;;;;;;;;;;;16.80;76.10;;;;;;5187856;28;19921;-25
2022/03/22 11:07:00;;;;;;;;;;;16.90;78.40;;;;;;5188705;28;19921;-25
2022/03/22 11:09:32;;;;;;;;;;;16.90;75.80;;;;;;5188463;28;20326;-27
2022/03/22 11:12:03;;;;;;;;;;;16.90;74.60;;;;;;5188969;28;19964;-26
2022/03/22 11:14:37;;;;;;;;;;;16.90;72.70;;;;;;5187684;28;19991;-27
2022/03/22 11:17:20;;;;;;;;;;;16.90;71.30;;;;;;5187284;28;19928;-30
2022/03/22 11:19:51;;;;;;;;;;;16.90;75.70;;;;;;5187864;28;20016;-26
2022/03/22 11:22:22;;;;;;;;;;;16.90;71.60;;;;;;5188981;28;20314;-28
2022/03/22 11:25:06;;;;;;;;;;;16.90;77.60;;;;;;5187642;28;20294;-26
2022/03/22 11:27:38;;;;;;;;;;;16.90;82.90;;;;;;5188581;28;19956;-26
2022/03/22 11:30:09;;;;;;;;;;;16.80;79.70;;;;;;5188580;28;19921;-28
2022/03/22 11:35:30;;;;;;;;;;;16.90;76.20;;;;;;5188987;28;19921;-26
2022/03/22 11:38:01;;;;;;;;;;;17.00;78.30;;;;;;5188628;28;19928;-25
2022/03/22 11:43:22;;;;;;;;;;;17.10;74.90;;;;;;5188367;28;19921;-27
2022/03/22 11:45:53;;;;;;;;;;;17.20;76.20;;;;;;5187988;28;19929;-27
2022/03/22 11:48:31;;;;;;;;;;;17.30;75.90;;;;;;5187177;28;19944;-27
2022/03/22 11:51:08;;;;;;;;;;;17.30;82.20;;;;;;5170996;28;19921;-28
2022/03/22 11:53:42;;;;;;;;;;;17.30;76.40;;;;;;5186799;28;19925;-32
2022/03/22 11:56:13;;;;;;;;;;;17.40;76.20;;;;;;5186613;28;19926;-27
2022/03/22 11:58:49;;;;;;;;;;;17.40;78.50;;;;;;5188012;28;19921;-28
2022/03/22 12:01:21;;;;;;;;;;;17.30;75.00;;;;;;5187902;28;19964;-34
2022/03/22 12:03:55;;;;;;;;;;;17.40;74.70;;;;;;5186539;28;20333;-29
2022/03/22 12:06:31;;;;;;;;;;;17.50;74.90;;;;;;5187792;28;19928;-29
2022/03/22 12:09:08;;;;;;;;;;;17.60;74.10;;;;;;5170663;28;20024;-25
2022/03/22 12:11:53;;;;;;;;;;;17.70;71.80;;;;;;5188455;28;19921;-28
2022/03/22 12:14:36;;;;;;;;;;;17.90;70.70;;;;;;5219727;28;20023;-26
2022/03/22 12:17:14;;;;;;;;;;;18.00;70.80;;;;;;5186705;28;20028;-29
2022/03/22 12:19:52;;;;;;;;;;;18.00;70.90;;;;;;5202779;28;19925;-27
2022/03/22 12:22:27;;;;;;;;;;;18.10;74.60;;;;;;5202254;28;19922;-28
2022/03/22 12:25:03;;;;;;;;;;;18.00;71.80;;;;;;5202746;28;19952;-29
2022/03/22 12:27:51;;;;;;;;;;;18.00;72.00;;;;;;5170843;28;19992;-25
2022/03/22 12:30:28;;;;;;;;;;;18.00;77.60;;;;;;5202487;28;19925;-26
2022/03/22 12:33:02;;;;;;;;;;;18.00;77.50;;;;;;5187523;28;19921;-26
2022/03/22 12:35:33;;;;;;;;;;;17.90;75.40;;;;;;5187356;28;19922;-30
2022/03/22 12:38:07;;;;;;;;;;;17.90;73.70;;;;;;5187771;28;19997;-27
2022/03/22 12:40:42;;;;;;;;;;;17.90;77.40;;;;;;5186227;28;19922;-27
2022/03/22 12:43:19;;;;;;;;;;;17.80;75.10;;;;;;5186317;28;19921;-27
2022/03/22 12:45:51;;;;;;;;;;;17.80;85.60;;;;;;5186329;28;20374;-29
2022/03/22 12:48:21;;;;;;;;;;;17.70;77.30;;;;;;5185771;28;19922;-26
2022/03/22 12:50:54;;;;;;;;;;;17.70;79.00;;;;;;5187816;28;19929;-26
2022/03/22 12:53:25;;;;;;;;;;;17.60;73.60;;;;;;5187031;28;19928;-27
2022/03/22 12:55:56;;;;;;;;;;;17.60;75.80;;;;;;5187236;28;19971;-24
2022/03/22 12:58:29;;;;;;;;;;;17.60;78.80;;;;;;5185511;28;20329;-32
2022/03/22 13:01:00;;;;;;;;;;;17.60;74.50;;;;;;5185999;28;19922;-26
2022/03/22 13:03:31;;;;;;;;;;;17.60;74.10;;;;;;5187659;28;19930;-26
2022/03/22 13:06:05;;;;;;;;;;;17.60;76.70;;;;;;5186104;28;19921;-25
2022/03/22 13:11:35;;;;;;;;;;;17.70;78.20;;;;;;5186217;28;20326;-28
2022/03/22 13:17:02;;;;;;;;;;;17.60;79.50;;;;;;5187261;28;19922;-29
2022/03/22 13:19:33;;;;;;;;;;;17.60;78.70;;;;;;5186008;28;20354;-26
2022/03/22 13:22:04;;;;;;;;;;;17.60;78.20;;;;;;5186774;28;19922;-26
2022/03/22 13:24:35;;;;;;;;;;;17.60;80.10;;;;;;5185649;28;19921;-29
2022/03/22 13:27:07;;;;;;;;;;;17.60;79.20;;;;;;5187180;28;19921;-25
2022/03/22 13:29:39;;;;;;;;;;;17.60;77.80;;;;;;5186895;28;19921;-28
2022/03/22 13:32:13;;;;;;;;;;;17.60;76.30;;;;;;5187214;28;19929;-32
2022/03/22 13:34:44;;;;;;;;;;;17.60;77.50;;;;;;5187350;28;19921;-28
2022/03/22 13:37:18;;;;;;;;;;;17.60;75.80;;;;;;5185771;28;19921;-27
2022/03/22 13:39:50;;;;;;;;;;;17.70;77.00;;;;;;5186481;28;19927;-26
2022/03/22 13:42:21;;;;;;;;;;;17.80;75.60;;;;;;5186626;28;19921;-27
2022/03/22 13:44:56;;;;;;;;;;;17.80;74.70;;;;;;5186635;28;19922;-31
2022/03/22 13:47:29;;;;;;;;;;;17.90;72.70;;;;;;5187155;28;19922;-30
2022/03/22 13:50:11;;;;;;;;;;;17.90;71.80;;;;;;5190327;28;20421;-30
2022/03/22 13:52:44;;;;;;;;;;;17.90;71.60;;;;;;5205736;28;19948;-29
2022/03/22 13:55:16;;;;;;;10.15;8.30;;;17.90;71.00;;;;;;5189817;28;20075;-27
2022/03/22 13:57:48;;;;;;;10.15;8.32;;;17.90;66.10;;;;;;5188674;28;20045;-27
2022/03/22 14:00:19;;;;;;;11.02;8.40;;;17.80;62.80;;;;;;5190050;28;20048;-27
2022/03/22 14:02:52;;;;;;;10.40;7.78;;;17.80;63.10;;;;;;5172593;28;20065;-27
2022/03/22 14:05:23;;;;;;;10.43;7.88;;;17.80;63.60;;;;;;5188754;28;20043;-26
2022/03/22 14:07:57;;;;;;;10.35;7.90;;;17.90;63.60;;;;;;5188182;28;20053;-29
2022/03/22 14:10:28;;;;;;;10.45;7.53;;;17.90;63.20;;;;;;5189553;28;20050;-27
2022/03/22 14:13:00;;;;;;;10.73;7.78;;;17.90;63.70;;;;;;5188385;28;20065;-27
2022/03/22 14:15:31;;;;;;;10.32;7.90;;;17.90;63.70;;;;;;5188159;28;20045;-27
2022/03/22 14:18:05;;;;;;;10.30;8.43;;;18.00;64.40;;;;;;5188581;28;20046;-27